sensor_id;sensor_type;location;lat;lon;timestamp;temperature;humidity
14749;DHT22;7466;53.574;9.976;2023-05-16T00:00:41;10.60;99.90
14749;DHT22;7466;53.574;9.976;2023-05-16T00:03:07;10.70;99.90
14749;DHT22;7466;53.574;9.976;2023-05-16T00:05:36;10.70;99.90
14749;DHT22;7466;53.574;9.976;2023-05-16T00:08:04;10.70;99.90
14749;DHT22;7466;53.574;9.976;2023-05-16T00:10:30;10.80;99.90
14749;DHT22;7466;53.574;9.976;2023-05-16T00:12:58;10.80;99.90
14749;DHT22;7466;53.574;9.976;2023-05-16T00:15:26;10.80;99.90
14749;DHT22;7466;53.574;9.976;2023-05-16T00:17:54;10.80;99.90
14749;DHT22;7466;53.574;9.976;2023-05-16T00:20:22;10.80;99.90
14749;DHT22;7466;53.574;9.976;2023-05-16T00:22:49;10.80;99.90
14749;DHT22;7466;53.574;9.976;2023-05-16T00:25:16;10.80;99.90
14749;DHT22;7466;53.574;9.976;2023-05-16T00:27:42;10.90;99.90
14749;DHT22;7466;53.574;9.976;2023-05-16T00:30:11;10.80;99.90
14749;DHT22;7466;53.574;9.976;2023-05-16T00:32:38;10.90;99.90
14749;DHT22;7466;53.574;9.976;2023-05-16T00:35:06;10.90;99.90
14749;DHT22;7466;53.574;9.976;2023-05-16T00:37:35;10.90;99.90
14749;DHT22;7466;53.574;9.976;2023-05-16T00:40:02;10.90;99.90
14749;DHT22;7466;53.574;9.976;2023-05-16T00:42:29;10.90;99.90
14749;DHT22;7466;53.574;9.976;2023-05-16T00:44:56;10.90;99.90
14749;DHT22;7466;53.574;9.976;2023-05-16T00:47:24;10.80;99.90
14749;DHT22;7466;53.574;9.976;2023-05-16T00:49:51;10.90;99.90
14749;DHT22;7466;53.574;9.976;2023-05-16T00:52:18;10.90;99.90
14749;DHT22;7466;53.574;9.976;2023-05-16T00:54:45;10.90;99.90
14749;DHT22;7466;53.574;9.976;2023-05-16T00:57:12;11.00;99.90
14749;DHT22;7466;53.574;9.976;2023-05-16T00:59:39;11.00;99.90
14749;DHT22;7466;53.574;9.976;2023-05-16T01:02:07;11.00;99.90
14749;DHT22;7466;53.574;9.976;2023-05-16T01:04:35;11.10;99.90
14749;DHT22;7466;53.574;9.976;2023-05-16T01:07:02;11.00;99.90
14749;DHT22;7466;53.574;9.976;2023-05-16T01:09:29;11.00;99.90
14749;DHT22;7466;53.574;9.976;2023-05-16T01:12:15;11.00;99.90
14749;DHT22;7466;53.574;9.976;2023-05-16T01:14:51;11.10;99.90
14749;DHT22;7466;53.574;9.976;2023-05-16T01:17:27;11.10;99.90
14749;DHT22;7466;53.574;9.976;2023-05-16T01:20:02;11.20;99.90
14749;DHT22;7466;53.574;9.976;2023-05-16T01:22:40;11.20;99.90
14749;DHT22;7466;53.574;9.976;2023-05-16T01:25:25;11.20;99.90
14749;DHT22;7466;53.574;9.976;2023-05-16T01:27:58;11.20;99.90
14749;DHT22;7466;53.574;9.976;2023-05-16T01:30:25;11.20;99.90
14749;DHT22;7466;53.574;9.976;2023-05-16T01:32:51;11.20;99.90
14749;DHT22;7466;53.574;9.976;2023-05-16T01:35:18;11.20;99.90
14749;DHT22;7466;53.574;9.976;2023-05-16T01:37:51;11.20;99.90
14749;DHT22;7466;53.574;9.976;2023-05-16T01:40:25;11.20;99.90
14749;DHT22;7466;53.574;9.976;2023-05-16T01:42:55;11.20;99.90
14749;DHT22;7466;53.574;9.976;2023-05-16T01:45:30;11.20;99.90
14749;DHT22;7466;53.574;9.976;2023-05-16T01:48:02;11.10;99.90
14749;DHT22;7466;53.574;9.976;2023-05-16T01:50:32;11.00;99.90
14749;DHT22;7466;53.574;9.976;2023-05-16T01:53:05;11.00;99.90
14749;DHT22;7466;53.574;9.976;2023-05-16T01:55:41;11.10;99.90
14749;DHT22;7466;53.574;9.976;2023-05-16T01:58:09;11.00;99.90
14749;DHT22;7466;53.574;9.976;2023-05-16T02:00:38;10.90;99.90
14749;DHT22;7466;53.574;9.976;2023-05-16T02:03:05;10.90;99.90
14749;DHT22;7466;53.574;9.976;2023-05-16T02:05:32;10.90;99.90
14749;DHT22;7466;53.574;9.976;2023-05-16T02:07:59;10.80;99.90
14749;DHT22;7466;53.574;9.976;2023-05-16T02:10:27;10.80;99.90
14749;DHT22;7466;53.574;9.976;2023-05-16T02:12:53;10.70;99.90
14749;DHT22;7466;53.574;9.976;2023-05-16T02:15:20;10.80;99.90
14749;DHT22;7466;53.574;9.976;2023-05-16T02:17:49;10.80;99.90
14749;DHT22;7466;53.574;9.976;2023-05-16T02:20:15;10.80;99.90
14749;DHT22;7466;53.574;9.976;2023-05-16T02:22:42;10.80;99.90
14749;DHT22;7466;53.574;9.976;2023-05-16T02:25:12;10.80;99.90
14749;DHT22;7466;53.574;9.976;2023-05-16T02:27:41;10.80;99.90
14749;DHT22;7466;53.574;9.976;2023-05-16T02:30:09;10.80;99.90
14749;DHT22;7466;53.574;9.976;2023-05-16T02:32:36;10.70;99.90
14749;DHT22;7466;53.574;9.976;2023-05-16T02:35:07;10.70;99.90
14749;DHT22;7466;53.574;9.976;2023-05-16T02:37:33;10.70;99.90
14749;DHT22;7466;53.574;9.976;2023-05-16T02:40:00;10.60;99.90
14749;DHT22;7466;53.574;9.976;2023-05-16T02:42:28;10.60;99.90
14749;DHT22;7466;53.574;9.976;2023-05-16T02:44:56;10.60;99.90
14749;DHT22;7466;53.574;9.976;2023-05-16T02:47:23;10.60;99.90
14749;DHT22;7466;53.574;9.976;2023-05-16T02:49:50;10.50;99.90
14749;DHT22;7466;53.574;9.976;2023-05-16T02:52:18;10.60;99.90
14749;DHT22;7466;53.574;9.976;2023-05-16T02:54:45;10.60;99.90
14749;DHT22;7466;53.574;9.976;2023-05-16T02:57:14;10.50;99.90
14749;DHT22;7466;53.574;9.976;2023-05-16T02:59:40;10.60;99.90
14749;DHT22;7466;53.574;9.976;2023-05-16T03:02:07;10.50;99.90
14749;DHT22;7466;53.574;9.976;2023-05-16T03:04:34;10.60;99.90
14749;DHT22;7466;53.574;9.976;2023-05-16T03:07:01;10.60;99.90
14749;DHT22;7466;53.574;9.976;2023-05-16T03:09:29;10.50;99.90
14749;DHT22;7466;53.574;9.976;2023-05-16T03:11:59;10.50;99.90
14749;DHT22;7466;53.574;9.976;2023-05-16T03:14:26;10.50;99.90
14749;DHT22;7466;53.574;9.976;2023-05-16T03:16:52;10.50;99.90
14749;DHT22;7466;53.574;9.976;2023-05-16T03:19:19;10.40;99.90
14749;DHT22;7466;53.574;9.976;2023-05-16T03:21:46;10.50;99.90
14749;DHT22;7466;53.574;9.976;2023-05-16T03:24:13;10.40;99.90
14749;DHT22;7466;53.574;9.976;2023-05-16T03:26:41;10.40;99.90
14749;DHT22;7466;53.574;9.976;2023-05-16T03:29:07;10.40;99.90
14749;DHT22;7466;53.574;9.976;2023-05-16T03:31:34;10.40;99.90
14749;DHT22;7466;53.574;9.976;2023-05-16T03:34:01;10.40;99.90
14749;DHT22;7466;53.574;9.976;2023-05-16T03:36:28;10.40;99.90
14749;DHT22;7466;53.574;9.976;2023-05-16T03:38:55;10.30;99.90
14749;DHT22;7466;53.574;9.976;2023-05-16T03:41:21;10.30;99.90
14749;DHT22;7466;53.574;9.976;2023-05-16T03:43:49;10.30;99.90
14749;DHT22;7466;53.574;9.976;2023-05-16T03:46:16;10.30;99.90
14749;DHT22;7466;53.574;9.976;2023-05-16T03:48:43;10.30;99.90
14749;DHT22;7466;53.574;9.976;2023-05-16T03:51:10;10.30;99.90
14749;DHT22;7466;53.574;9.976;2023-05-16T03:53:36;10.30;99.90
14749;DHT22;7466;53.574;9.976;2023-05-16T03:56:04;10.30;99.90
14749;DHT22;7466;53.574;9.976;2023-05-16T03:58:31;10.30;99.90
14749;DHT22;7466;53.574;9.976;2023-05-16T04:00:59;10.30;99.90
14749;DHT22;7466;53.574;9.976;2023-05-16T04:03:26;10.30;99.90
14749;DHT22;7466;53.574;9.976;2023-05-16T04:05:54;10.40;99.90
14749;DHT22;7466;53.574;9.976;2023-05-16T04:08:21;10.30;99.90
14749;DHT22;7466;53.574;9.976;2023-05-16T04:10:48;10.30;99.90
14749;DHT22;7466;53.574;9.976;2023-05-16T04:13:15;10.30;99.90
14749;DHT22;7466;53.574;9.976;2023-05-16T04:15:41;10.20;99.90
14749;DHT22;7466;53.574;9.976;2023-05-16T04:18:09;10.30;99.90
14749;DHT22;7466;53.574;9.976;2023-05-16T04:20:36;10.30;99.90
14749;DHT22;7466;53.574;9.976;2023-05-16T04:23:03;10.30;99.90
14749;DHT22;7466;53.574;9.976;2023-05-16T04:25:30;10.20;99.90
14749;DHT22;7466;53.574;9.976;2023-05-16T04:27:57;10.20;99.90
14749;DHT22;7466;53.574;9.976;2023-05-16T04:30:24;10.20;99.90
14749;DHT22;7466;53.574;9.976;2023-05-16T04:32:50;10.20;99.90
14749;DHT22;7466;53.574;9.976;2023-05-16T04:35:19;10.30;99.90
14749;DHT22;7466;53.574;9.976;2023-05-16T04:37:46;10.30;99.90
14749;DHT22;7466;53.574;9.976;2023-05-16T04:40:13;10.40;99.90
14749;DHT22;7466;53.574;9.976;2023-05-16T04:42:39;10.40;99.90
14749;DHT22;7466;53.574;9.976;2023-05-16T04:45:07;10.50;99.90
14749;DHT22;7466;53.574;9.976;2023-05-16T04:47:36;10.50;99.90
14749;DHT22;7466;53.574;9.976;2023-05-16T04:50:03;10.50;99.90
14749;DHT22;7466;53.574;9.976;2023-05-16T04:52:32;10.40;99.90
14749;DHT22;7466;53.574;9.976;2023-05-16T04:54:58;10.40;99.90
14749;DHT22;7466;53.574;9.976;2023-05-16T04:57:25;10.30;99.90
14749;DHT22;7466;53.574;9.976;2023-05-16T04:59:52;10.20;99.90
14749;DHT22;7466;53.574;9.976;2023-05-16T05:02:19;10.20;99.90
14749;DHT22;7466;53.574;9.976;2023-05-16T05:04:46;10.20;99.90
14749;DHT22;7466;53.574;9.976;2023-05-16T05:07:12;10.30;99.90
14749;DHT22;7466;53.574;9.976;2023-05-16T05:09:40;10.30;99.90
14749;DHT22;7466;53.574;9.976;2023-05-16T05:12:08;10.30;99.90
14749;DHT22;7466;53.574;9.976;2023-05-16T05:14:35;10.20;99.90
14749;DHT22;7466;53.574;9.976;2023-05-16T05:17:02;10.20;99.90
14749;DHT22;7466;53.574;9.976;2023-05-16T05:19:29;10.20;99.90
14749;DHT22;7466;53.574;9.976;2023-05-16T05:21:55;10.30;99.90
14749;DHT22;7466;53.574;9.976;2023-05-16T05:24:22;10.50;99.90
14749;DHT22;7466;53.574;9.976;2023-05-16T05:26:51;10.70;99.90
14749;DHT22;7466;53.574;9.976;2023-05-16T05:29:17;10.80;99.90
14749;DHT22;7466;53.574;9.976;2023-05-16T05:31:44;11.00;99.90
14749;DHT22;7466;53.574;9.976;2023-05-16T05:34:11;11.00;99.90
14749;DHT22;7466;53.574;9.976;2023-05-16T05:36:38;10.90;99.90
14749;DHT22;7466;53.574;9.976;2023-05-16T05:39:05;10.70;99.90
14749;DHT22;7466;53.574;9.976;2023-05-16T05:41:31;10.80;99.90
14749;DHT22;7466;53.574;9.976;2023-05-16T05:44:00;10.80;99.90
14749;DHT22;7466;53.574;9.976;2023-05-16T05:46:28;10.90;99.90
14749;DHT22;7466;53.574;9.976;2023-05-16T05:48:55;10.80;99.90
14749;DHT22;7466;53.574;9.976;2023-05-16T05:51:21;11.00;99.90
14749;DHT22;7466;53.574;9.976;2023-05-16T05:53:48;11.10;99.90
14749;DHT22;7466;53.574;9.976;2023-05-16T05:56:15;11.10;99.90
14749;DHT22;7466;53.574;9.976;2023-05-16T05:58:42;11.20;99.90
14749;DHT22;7466;53.574;9.976;2023-05-16T06:01:11;11.50;99.90
14749;DHT22;7466;53.574;9.976;2023-05-16T06:03:37;11.60;99.90
14749;DHT22;7466;53.574;9.976;2023-05-16T06:06:04;11.50;99.90
14749;DHT22;7466;53.574;9.976;2023-05-16T06:08:31;11.60;99.90
14749;DHT22;7466;53.574;9.976;2023-05-16T06:10:59;11.70;99.90
14749;DHT22;7466;53.574;9.976;2023-05-16T06:13:26;11.60;99.90
14749;DHT22;7466;53.574;9.976;2023-05-16T06:15:53;11.70;99.90
14749;DHT22;7466;53.574;9.976;2023-05-16T06:18:21;11.70;99.90
14749;DHT22;7466;53.574;9.976;2023-05-16T06:20:48;11.70;99.90
14749;DHT22;7466;53.574;9.976;2023-05-16T06:23:15;11.50;99.90
14749;DHT22;7466;53.574;9.976;2023-05-16T06:25:41;11.50;99.90
14749;DHT22;7466;53.574;9.976;2023-05-16T06:28:08;11.40;99.90
14749;DHT22;7466;53.574;9.976;2023-05-16T06:30:35;11.30;99.90
14749;DHT22;7466;53.574;9.976;2023-05-16T06:33:02;11.40;99.90
14749;DHT22;7466;53.574;9.976;2023-05-16T06:35:30;11.40;99.90
14749;DHT22;7466;53.574;9.976;2023-05-16T06:37:56;11.60;99.90
14749;DHT22;7466;53.574;9.976;2023-05-16T06:40:23;11.60;99.90
14749;DHT22;7466;53.574;9.976;2023-05-16T06:42:50;11.50;99.90
14749;DHT22;7466;53.574;9.976;2023-05-16T06:45:17;11.30;99.90
14749;DHT22;7466;53.574;9.976;2023-05-16T06:47:43;11.10;99.90
14749;DHT22;7466;53.574;9.976;2023-05-16T06:50:10;11.00;99.90
14749;DHT22;7466;53.574;9.976;2023-05-16T06:52:39;10.90;99.90
14749;DHT22;7466;53.574;9.976;2023-05-16T06:55:07;11.10;99.90
14749;DHT22;7466;53.574;9.976;2023-05-16T06:57:33;11.30;99.90
14749;DHT22;7466;53.574;9.976;2023-05-16T07:00:00;11.60;99.90
14749;DHT22;7466;53.574;9.976;2023-05-16T07:02:27;12.00;99.90
14749;DHT22;7466;53.574;9.976;2023-05-16T07:04:54;12.00;99.90
14749;DHT22;7466;53.574;9.976;2023-05-16T07:07:20;11.90;99.90
14749;DHT22;7466;53.574;9.976;2023-05-16T07:09:48;11.80;99.90
14749;DHT22;7466;53.574;9.976;2023-05-16T07:12:15;11.90;99.90
14749;DHT22;7466;53.574;9.976;2023-05-16T07:14:42;12.00;99.90
14749;DHT22;7466;53.574;9.976;2023-05-16T07:17:09;12.20;99.90
14749;DHT22;7466;53.574;9.976;2023-05-16T07:19:36;12.40;99.90
14749;DHT22;7466;53.574;9.976;2023-05-16T07:22:03;12.40;99.90
14749;DHT22;7466;53.574;9.976;2023-05-16T07:24:30;12.50;99.90
14749;DHT22;7466;53.574;9.976;2023-05-16T07:26:58;12.50;99.90
14749;DHT22;7466;53.574;9.976;2023-05-16T07:29:25;12.60;99.90
14749;DHT22;7466;53.574;9.976;2023-05-16T07:31:52;12.60;99.90
14749;DHT22;7466;53.574;9.976;2023-05-16T07:34:18;12.40;99.90
14749;DHT22;7466;53.574;9.976;2023-05-16T07:36:45;12.50;99.90
14749;DHT22;7466;53.574;9.976;2023-05-16T07:39:12;12.30;99.90
14749;DHT22;7466;53.574;9.976;2023-05-16T07:41:39;12.50;99.90
14749;DHT22;7466;53.574;9.976;2023-05-16T07:44:07;12.80;99.90
14749;DHT22;7466;53.574;9.976;2023-05-16T07:46:33;12.80;99.90
14749;DHT22;7466;53.574;9.976;2023-05-16T07:49:00;12.80;99.90
14749;DHT22;7466;53.574;9.976;2023-05-16T07:51:27;12.50;99.90
14749;DHT22;7466;53.574;9.976;2023-05-16T07:53:54;12.50;99.90
14749;DHT22;7466;53.574;9.976;2023-05-16T07:56:20;12.30;99.90
14749;DHT22;7466;53.574;9.976;2023-05-16T07:58:48;12.20;99.90
14749;DHT22;7466;53.574;9.976;2023-05-16T08:01:16;12.40;99.90
14749;DHT22;7466;53.574;9.976;2023-05-16T08:03:43;12.60;99.90
14749;DHT22;7466;53.574;9.976;2023-05-16T08:06:10;12.50;99.90
14749;DHT22;7466;53.574;9.976;2023-05-16T08:08:36;12.70;99.90
14749;DHT22;7466;53.574;9.976;2023-05-16T08:11:04;12.70;99.90
14749;DHT22;7466;53.574;9.976;2023-05-16T08:13:31;12.90;99.90
14749;DHT22;7466;53.574;9.976;2023-05-16T08:15:57;13.20;99.90
14749;DHT22;7466;53.574;9.976;2023-05-16T08:18:25;13.40;99.90
14749;DHT22;7466;53.574;9.976;2023-05-16T08:20:52;13.30;99.90
14749;DHT22;7466;53.574;9.976;2023-05-16T08:23:19;13.40;99.90
14749;DHT22;7466;53.574;9.976;2023-05-16T08:25:46;13.40;99.90
14749;DHT22;7466;53.574;9.976;2023-05-16T08:28:12;13.30;99.90
14749;DHT22;7466;53.574;9.976;2023-05-16T08:30:39;12.90;99.90
14749;DHT22;7466;53.574;9.976;2023-05-16T08:33:07;12.70;99.90
14749;DHT22;7466;53.574;9.976;2023-05-16T08:35:36;12.40;99.90
14749;DHT22;7466;53.574;9.976;2023-05-16T08:38:03;12.40;99.90
14749;DHT22;7466;53.574;9.976;2023-05-16T08:40:29;12.50;99.90
14749;DHT22;7466;53.574;9.976;2023-05-16T08:42:56;12.70;99.90
14749;DHT22;7466;53.574;9.976;2023-05-16T08:45:23;13.00;99.90
14749;DHT22;7466;53.574;9.976;2023-05-16T08:47:54;13.40;99.90
14749;DHT22;7466;53.574;9.976;2023-05-16T08:50:21;13.40;99.90
14749;DHT22;7466;53.574;9.976;2023-05-16T08:52:51;13.60;99.90
14749;DHT22;7466;53.574;9.976;2023-05-16T08:55:19;13.80;99.90
14749;DHT22;7466;53.574;9.976;2023-05-16T08:57:47;13.80;99.90
14749;DHT22;7466;53.574;9.976;2023-05-16T09:00:16;13.80;99.90
14749;DHT22;7466;53.574;9.976;2023-05-16T09:02:43;13.90;99.90
14749;DHT22;7466;53.574;9.976;2023-05-16T09:05:12;13.60;99.90
14749;DHT22;7466;53.574;9.976;2023-05-16T09:07:39;13.90;99.90
14749;DHT22;7466;53.574;9.976;2023-05-16T09:10:08;14.10;99.90
14749;DHT22;7466;53.574;9.976;2023-05-16T09:12:36;14.30;99.90
14749;DHT22;7466;53.574;9.976;2023-05-16T09:15:05;14.10;99.90
14749;DHT22;7466;53.574;9.976;2023-05-16T09:17:34;14.30;99.90
14749;DHT22;7466;53.574;9.976;2023-05-16T09:20:17;14.40;99.90
14749;DHT22;7466;53.574;9.976;2023-05-16T09:22:51;14.00;99.90
14749;DHT22;7466;53.574;9.976;2023-05-16T09:25:21;14.40;99.90
14749;DHT22;7466;53.574;9.976;2023-05-16T09:27:51;14.90;99.90
14749;DHT22;7466;53.574;9.976;2023-05-16T09:30:21;15.40;99.90
14749;DHT22;7466;53.574;9.976;2023-05-16T09:32:50;15.60;99.90
14749;DHT22;7466;53.574;9.976;2023-05-16T09:35:19;15.10;99.90
14749;DHT22;7466;53.574;9.976;2023-05-16T09:37:50;14.30;99.90
14749;DHT22;7466;53.574;9.976;2023-05-16T09:40:24;14.70;99.90
14749;DHT22;7466;53.574;9.976;2023-05-16T09:43:00;15.30;99.90
14749;DHT22;7466;53.574;9.976;2023-05-16T09:45:29;15.70;99.30
14749;DHT22;7466;53.574;9.976;2023-05-16T09:48:03;16.70;97.50
14749;DHT22;7466;53.574;9.976;2023-05-16T09:50:32;16.30;94.90
14749;DHT22;7466;53.574;9.976;2023-05-16T09:52:59;16.00;97.40
14749;DHT22;7466;53.574;9.976;2023-05-16T09:55:28;15.80;96.80
14749;DHT22;7466;53.574;9.976;2023-05-16T09:57:55;15.60;96.50
14749;DHT22;7466;53.574;9.976;2023-05-16T10:00:28;15.40;97.20
14749;DHT22;7466;53.574;9.976;2023-05-16T10:02:56;15.10;96.20
14749;DHT22;7466;53.574;9.976;2023-05-16T10:05:23;14.90;97.40
14749;DHT22;7466;53.574;9.976;2023-05-16T10:07:54;14.70;99.90
14749;DHT22;7466;53.574;9.976;2023-05-16T10:10:22;14.00;99.90
14749;DHT22;7466;53.574;9.976;2023-05-16T10:12:51;13.90;99.90
14749;DHT22;7466;53.574;9.976;2023-05-16T10:15:18;13.80;99.90
14749;DHT22;7466;53.574;9.976;2023-05-16T10:17:50;14.30;99.90
14749;DHT22;7466;53.574;9.976;2023-05-16T10:20:17;14.10;99.90
14749;DHT22;7466;53.574;9.976;2023-05-16T10:22:46;13.80;99.90
14749;DHT22;7466;53.574;9.976;2023-05-16T10:25:19;13.50;99.90
14749;DHT22;7466;53.574;9.976;2023-05-16T10:27:50;13.30;99.90
14749;DHT22;7466;53.574;9.976;2023-05-16T10:30:17;13.10;99.90
14749;DHT22;7466;53.574;9.976;2023-05-16T10:32:45;13.50;99.90
14749;DHT22;7466;53.574;9.976;2023-05-16T10:35:13;14.30;99.90
14749;DHT22;7466;53.574;9.976;2023-05-16T10:37:41;14.80;99.90
14749;DHT22;7466;53.574;9.976;2023-05-16T10:40:08;15.00;99.90
14749;DHT22;7466;53.574;9.976;2023-05-16T10:42:35;14.70;99.90
14749;DHT22;7466;53.574;9.976;2023-05-16T10:45:15;14.10;99.90
14749;DHT22;7466;53.574;9.976;2023-05-16T10:47:50;14.40;99.90
14749;DHT22;7466;53.574;9.976;2023-05-16T10:50:30;14.90;99.90
14749;DHT22;7466;53.574;9.976;2023-05-16T10:53:17;14.80;99.90
14749;DHT22;7466;53.574;9.976;2023-05-16T10:55:49;14.70;99.90
14749;DHT22;7466;53.574;9.976;2023-05-16T10:58:23;14.50;99.90
14749;DHT22;7466;53.574;9.976;2023-05-16T11:01:22;14.10;99.90
14749;DHT22;7466;53.574;9.976;2023-05-16T11:04:06;13.50;99.90
14749;DHT22;7466;53.574;9.976;2023-05-16T11:06:42;13.40;99.90
14749;DHT22;7466;53.574;9.976;2023-05-16T11:09:18;13.30;99.90
14749;DHT22;7466;53.574;9.976;2023-05-16T11:11:52;13.40;99.90
14749;DHT22;7466;53.574;9.976;2023-05-16T11:14:20;14.00;99.90
14749;DHT22;7466;53.574;9.976;2023-05-16T11:17:04;14.40;99.90
14749;DHT22;7466;53.574;9.976;2023-05-16T11:19:33;15.30;99.90
14749;DHT22;7466;53.574;9.976;2023-05-16T11:22:21;15.80;98.60
14749;DHT22;7466;53.574;9.976;2023-05-16T11:24:54;15.90;97.20
14749;DHT22;7466;53.574;9.976;2023-05-16T11:27:23;15.50;94.10
14749;DHT22;7466;53.574;9.976;2023-05-16T11:29:57;15.50;93.90
14749;DHT22;7466;53.574;9.976;2023-05-16T11:32:25;15.80;94.40
14749;DHT22;7466;53.574;9.976;2023-05-16T11:34:52;15.30;96.50
14749;DHT22;7466;53.574;9.976;2023-05-16T11:37:19;15.60;98.00
14749;DHT22;7466;53.574;9.976;2023-05-16T11:39:47;15.90;96.70
14749;DHT22;7466;53.574;9.976;2023-05-16T11:42:14;15.60;94.20
14749;DHT22;7466;53.574;9.976;2023-05-16T11:44:41;14.90;96.10
14749;DHT22;7466;53.574;9.976;2023-05-16T11:47:07;14.90;99.10
14749;DHT22;7466;53.574;9.976;2023-05-16T11:49:35;15.00;99.90
14749;DHT22;7466;53.574;9.976;2023-05-16T11:52:03;15.50;99.40
14749;DHT22;7466;53.574;9.976;2023-05-16T11:54:32;15.40;98.20
14749;DHT22;7466;53.574;9.976;2023-05-16T11:57:00;15.50;97.70
14749;DHT22;7466;53.574;9.976;2023-05-16T11:59:27;15.60;97.30
14749;DHT22;7466;53.574;9.976;2023-05-16T12:01:54;15.40;96.30
14749;DHT22;7466;53.574;9.976;2023-05-16T12:04:21;15.60;95.00
14749;DHT22;7466;53.574;9.976;2023-05-16T12:07:01;15.50;95.40
14749;DHT22;7466;53.574;9.976;2023-05-16T12:09:28;15.40;96.00
14749;DHT22;7466;53.574;9.976;2023-05-16T12:11:57;15.70;96.80
14749;DHT22;7466;53.574;9.976;2023-05-16T12:14:24;16.20;97.90
14749;DHT22;7466;53.574;9.976;2023-05-16T12:16:51;16.20;99.10
14749;DHT22;7466;53.574;9.976;2023-05-16T12:19:20;15.20;99.90
14749;DHT22;7466;53.574;9.976;2023-05-16T12:21:51;15.60;99.10
14749;DHT22;7466;53.574;9.976;2023-05-16T12:24:20;16.40;96.90
14749;DHT22;7466;53.574;9.976;2023-05-16T12:26:47;16.20;92.10
14749;DHT22;7466;53.574;9.976;2023-05-16T12:29:13;16.70;92.30
14749;DHT22;7466;53.574;9.976;2023-05-16T12:31:40;17.40;90.40
14749;DHT22;7466;53.574;9.976;2023-05-16T12:34:17;17.70;88.60
14749;DHT22;7466;53.574;9.976;2023-05-16T12:36:50;18.50;81.00
14749;DHT22;7466;53.574;9.976;2023-05-16T12:39:17;18.10;81.30
14749;DHT22;7466;53.574;9.976;2023-05-16T12:41:46;18.50;81.70
14749;DHT22;7466;53.574;9.976;2023-05-16T12:44:14;18.80;78.20
14749;DHT22;7466;53.574;9.976;2023-05-16T12:46:44;18.30;80.00
14749;DHT22;7466;53.574;9.976;2023-05-16T12:49:11;18.60;79.20
14749;DHT22;7466;53.574;9.976;2023-05-16T12:51:39;18.60;80.30
14749;DHT22;7466;53.574;9.976;2023-05-16T12:54:07;18.60;80.60
14749;DHT22;7466;53.574;9.976;2023-05-16T12:56:35;18.00;85.80
14749;DHT22;7466;53.574;9.976;2023-05-16T12:59:04;18.00;89.10
14749;DHT22;7466;53.574;9.976;2023-05-16T13:01:30;17.70;90.00
14749;DHT22;7466;53.574;9.976;2023-05-16T13:03:58;17.60;91.60
14749;DHT22;7466;53.574;9.976;2023-05-16T13:06:25;16.50;96.30
14749;DHT22;7466;53.574;9.976;2023-05-16T13:08:52;15.90;99.90
14749;DHT22;7466;53.574;9.976;2023-05-16T13:11:19;15.70;99.90
14749;DHT22;7466;53.574;9.976;2023-05-16T13:13:46;15.50;99.90
14749;DHT22;7466;53.574;9.976;2023-05-16T13:16:18;15.60;99.90
14749;DHT22;7466;53.574;9.976;2023-05-16T13:18:45;16.50;99.90
14749;DHT22;7466;53.574;9.976;2023-05-16T13:21:12;17.10;99.00
14749;DHT22;7466;53.574;9.976;2023-05-16T13:23:40;17.70;92.70
14749;DHT22;7466;53.574;9.976;2023-05-16T13:26:07;18.10;92.10
14749;DHT22;7466;53.574;9.976;2023-05-16T13:28:34;17.60;90.30
14749;DHT22;7466;53.574;9.976;2023-05-16T13:31:00;16.40;94.60
14749;DHT22;7466;53.574;9.976;2023-05-16T13:33:30;15.10;99.90
14749;DHT22;7466;53.574;9.976;2023-05-16T13:35:57;14.50;99.90
14749;DHT22;7466;53.574;9.976;2023-05-16T13:38:23;15.00;99.90
14749;DHT22;7466;53.574;9.976;2023-05-16T13:40:50;16.20;97.40
14749;DHT22;7466;53.574;9.976;2023-05-16T13:43:17;17.00;94.30
14749;DHT22;7466;53.574;9.976;2023-05-16T13:45:44;19.10;85.50
14749;DHT22;7466;53.574;9.976;2023-05-16T13:48:10;20.20;78.90
14749;DHT22;7466;53.574;9.976;2023-05-16T13:50:39;21.70;69.40
14749;DHT22;7466;53.574;9.976;2023-05-16T13:53:05;22.00;62.20
14749;DHT22;7466;53.574;9.976;2023-05-16T13:55:32;21.70;60.00
14749;DHT22;7466;53.574;9.976;2023-05-16T13:57:59;20.10;61.50
14749;DHT22;7466;53.574;9.976;2023-05-16T14:00:27;17.10;72.80
14749;DHT22;7466;53.574;9.976;2023-05-16T14:02:54;15.30;90.80
14749;DHT22;7466;53.574;9.976;2023-05-16T14:05:23;14.30;99.90
14749;DHT22;7466;53.574;9.976;2023-05-16T14:07:53;14.30;99.90
14749;DHT22;7466;53.574;9.976;2023-05-16T14:10:20;13.60;99.90
14749;DHT22;7466;53.574;9.976;2023-05-16T14:12:47;13.60;99.90
14749;DHT22;7466;53.574;9.976;2023-05-16T14:15:14;14.60;99.90
14749;DHT22;7466;53.574;9.976;2023-05-16T14:17:41;14.90;99.90
14749;DHT22;7466;53.574;9.976;2023-05-16T14:20:08;16.10;99.40
14749;DHT22;7466;53.574;9.976;2023-05-16T14:22:36;16.50;96.40
14749;DHT22;7466;53.574;9.976;2023-05-16T14:25:07;17.70;90.60
14749;DHT22;7466;53.574;9.976;2023-05-16T14:27:34;18.60;84.10
14749;DHT22;7466;53.574;9.976;2023-05-16T14:30:00;21.10;75.80
14749;DHT22;7466;53.574;9.976;2023-05-16T14:32:27;21.80;67.90
14749;DHT22;7466;53.574;9.976;2023-05-16T14:34:54;23.50;61.30
14749;DHT22;7466;53.574;9.976;2023-05-16T14:37:21;21.80;61.60
14749;DHT22;7466;53.574;9.976;2023-05-16T14:39:47;22.10;60.70
14749;DHT22;7466;53.574;9.976;2023-05-16T14:42:16;21.60;62.30
14749;DHT22;7466;53.574;9.976;2023-05-16T14:44:43;19.10;67.90
14749;DHT22;7466;53.574;9.976;2023-05-16T14:47:10;17.90;74.00
14749;DHT22;7466;53.574;9.976;2023-05-16T14:49:37;16.40;84.10
14749;DHT22;7466;53.574;9.976;2023-05-16T14:52:04;14.70;95.30
14749;DHT22;7466;53.574;9.976;2023-05-16T14:54:32;14.00;99.90
14749;DHT22;7466;53.574;9.976;2023-05-16T14:56:58;14.30;99.90
14749;DHT22;7466;53.574;9.976;2023-05-16T14:59:27;16.10;94.60
14749;DHT22;7466;53.574;9.976;2023-05-16T15:01:54;17.60;82.30
14749;DHT22;7466;53.574;9.976;2023-05-16T15:04:20;18.20;76.80
14749;DHT22;7466;53.574;9.976;2023-05-16T15:06:47;17.60;78.00
14749;DHT22;7466;53.574;9.976;2023-05-16T15:09:14;16.20;87.00
14749;DHT22;7466;53.574;9.976;2023-05-16T15:11:41;14.80;96.20
14749;DHT22;7466;53.574;9.976;2023-05-16T15:14:08;15.00;99.90
14749;DHT22;7466;53.574;9.976;2023-05-16T15:16:36;15.10;99.90
14749;DHT22;7466;53.574;9.976;2023-05-16T15:19:03;15.20;99.90
14749;DHT22;7466;53.574;9.976;2023-05-16T15:21:30;15.00;99.90
14749;DHT22;7466;53.574;9.976;2023-05-16T15:23:57;16.20;99.90
14749;DHT22;7466;53.574;9.976;2023-05-16T15:26:25;16.80;99.60
14749;DHT22;7466;53.574;9.976;2023-05-16T15:28:52;17.40;97.80
14749;DHT22;7466;53.574;9.976;2023-05-16T15:31:20;17.50;94.50
14749;DHT22;7466;53.574;9.976;2023-05-16T15:33:48;15.70;99.40
14749;DHT22;7466;53.574;9.976;2023-05-16T15:36:15;15.50;99.90
14749;DHT22;7466;53.574;9.976;2023-05-16T15:38:42;14.90;99.90
14749;DHT22;7466;53.574;9.976;2023-05-16T15:41:10;14.20;99.90
14749;DHT22;7466;53.574;9.976;2023-05-16T15:43:37;13.60;99.90
14749;DHT22;7466;53.574;9.976;2023-05-16T15:46:05;13.20;99.90
14749;DHT22;7466;53.574;9.976;2023-05-16T15:48:33;12.80;99.90
14749;DHT22;7466;53.574;9.976;2023-05-16T15:51:01;12.20;99.90